createdAt,value
2019-04-19T00:00:26.779Z,15.86
2019-04-19T00:01:26.783Z,15.90
2019-04-19T00:02:35.393Z,15.90
2019-04-19T00:03:31.116Z,15.91
2019-04-19T00:04:27.663Z,15.88
2019-04-19T00:05:30.860Z,15.88
2019-04-19T00:06:31.659Z,15.90
2019-04-19T00:07:27.835Z,15.76
2019-04-19T00:08:41.510Z,15.95
2019-04-19T00:09:34.904Z,15.80
2019-04-19T00:10:37.953Z,15.75
2019-04-19T00:11:35.340Z,15.67
2019-04-19T00:12:39.929Z,15.64
2019-04-19T00:13:26.318Z,15.58
2019-04-19T00:14:25.771Z,15.64
2019-04-19T00:15:26.559Z,15.65
2019-04-19T00:16:25.786Z,15.64
2019-04-19T00:17:29.298Z,15.65
2019-04-19T00:18:26.226Z,15.65
2019-04-19T00:19:52.509Z,15.55
2019-04-19T00:20:45.355Z,15.57
2019-04-19T00:21:55.812Z,15.62
2019-04-19T00:22:39.704Z,15.55
2019-04-19T00:23:31.996Z,15.46
2019-04-19T00:24:24.994Z,15.25
2019-04-19T00:25:25.823Z,15.22
2019-04-19T00:26:25.866Z,15.27
2019-04-19T00:27:31.958Z,15.11
2019-04-19T00:28:35.286Z,15.15
2019-04-19T00:29:35.522Z,15.14
2019-04-19T00:30:38.797Z,15.14
2019-04-19T00:31:34.116Z,15.14
2019-04-19T00:32:34.917Z,15.18
2019-04-19T00:33:33.073Z,15.04
2019-04-19T00:34:25.250Z,15.07
2019-04-19T00:35:24.366Z,15.09
2019-04-19T00:36:23.959Z,15.03
2019-04-19T00:37:24.737Z,15.04
2019-04-19T00:38:38.343Z,15.10
2019-04-19T00:39:38.484Z,15.11
2019-04-19T00:40:38.183Z,15.17
2019-04-19T00:41:35.804Z,15.07
2019-04-19T00:42:40.230Z,15.11
2019-04-19T00:43:39.161Z,15.17
2019-04-19T00:44:50.612Z,15.17
2019-04-19T00:45:35.054Z,15.04
2019-04-19T00:46:38.288Z,15.14
2019-04-19T00:47:40.839Z,15.10
2019-04-19T00:48:40.792Z,15.10
2019-04-19T00:49:32.039Z,15.14
2019-04-19T00:50:35.519Z,15.19
2019-04-19T00:51:39.954Z,15.09
2019-04-19T00:52:53.191Z,15.06
2019-04-19T00:53:32.871Z,15.18
2019-04-19T00:54:30.117Z,15.21
2019-04-19T00:55:35.078Z,15.11
2019-04-19T00:56:33.517Z,15.17
2019-04-19T00:57:30.297Z,15.14
2019-04-19T00:58:26.370Z,15.09
2019-04-19T00:59:23.275Z,15.10
2019-04-19T01:00:27.911Z,15.09
2019-04-19T01:01:26.039Z,15.04
2019-04-19T01:02:23.695Z,15.02
2019-04-19T01:03:29.586Z,15.03
2019-04-19T01:04:25.750Z,15.09
2019-04-19T01:05:26.971Z,14.97
2019-04-19T01:06:30.671Z,14.96
2019-04-19T01:07:28.415Z,14.96
2019-04-19T01:08:24.453Z,14.92
2019-04-19T01:09:37.173Z,14.86
2019-04-19T01:10:35.160Z,14.78
2019-04-19T01:11:34.006Z,14.77
2019-04-19T01:12:40.621Z,14.60
2019-04-19T01:13:38.223Z,14.51
2019-04-19T01:14:33.333Z,14.50
2019-04-19T01:15:30.973Z,14.45
2019-04-19T01:16:31.197Z,14.48
2019-04-19T01:17:34.880Z,14.37
2019-04-19T01:18:32.122Z,14.29
2019-04-19T01:19:22.389Z,14.35
2019-04-19T01:20:20.529Z,14.29
2019-04-19T01:21:20.414Z,14.28
2019-04-19T01:22:23.951Z,14.30
2019-04-19T01:23:21.341Z,14.14
2019-04-19T01:24:25.591Z,14.11
2019-04-19T01:25:24.079Z,13.96
2019-04-19T01:26:20.091Z,13.95
2019-04-19T01:27:24.913Z,13.97
2019-04-19T01:28:24.171Z,14.03
2019-04-19T01:29:21.397Z,14.05
2019-04-19T01:30:27.404Z,14.00
2019-04-19T01:31:23.167Z,14.05
2019-04-19T01:32:21.385Z,14.00
2019-04-19T01:33:29.049Z,14.10
2019-04-19T01:34:22.826Z,14.05
2019-04-19T01:35:21.388Z,14.10
2019-04-19T01:36:28.804Z,14.08
2019-04-19T01:37:22.453Z,14.12
2019-04-19T01:38:19.112Z,14.14
2019-04-19T01:39:33.728Z,14.12
2019-04-19T01:40:37.501Z,14.10
2019-04-19T01:41:33.644Z,14.10
2019-04-19T01:42:37.802Z,14.05
2019-04-19T01:43:35.296Z,14.14
2019-04-19T01:44:39.244Z,14.08
2019-04-19T01:45:40.446Z,14.04
2019-04-19T01:46:40.923Z,14.04
2019-04-19T01:47:36.263Z,13.95
2019-04-19T01:48:34.256Z,13.89
2019-04-19T01:49:36.845Z,13.87
2019-04-19T01:50:38.454Z,13.79
2019-04-19T01:51:38.970Z,13.81
2019-04-19T01:52:44.939Z,13.85
2019-04-19T01:53:33.061Z,13.85
2019-04-19T01:54:34.534Z,13.74
2019-04-19T01:55:24.891Z,13.78
2019-04-19T01:56:19.984Z,13.63
2019-04-19T01:57:17.717Z,13.54
2019-04-19T01:58:19.670Z,13.65
2019-04-19T01:59:18.135Z,13.67
2019-04-19T02:00:24.407Z,13.56
2019-04-19T02:01:22.096Z,13.62
2019-04-19T02:02:20.801Z,13.47
2019-04-19T02:03:17.071Z,13.53
2019-04-19T02:04:21.434Z,13.54
2019-04-19T02:05:19.518Z,13.52
2019-04-19T02:06:21.198Z,13.46
2019-04-19T02:07:22.413Z,13.49
2019-04-19T02:08:17.963Z,13.46
2019-04-19T02:09:29.237Z,13.47
2019-04-19T02:10:34.707Z,13.49
2019-04-19T02:11:29.530Z,13.37
2019-04-19T02:12:32.129Z,13.33
2019-04-19T02:13:24.785Z,13.38
2019-04-19T02:14:22.076Z,13.44
2019-04-19T02:15:27.938Z,13.37
2019-04-19T02:16:20.420Z,13.39
2019-04-19T02:17:17.824Z,13.41
2019-04-19T02:18:20.957Z,13.35
2019-04-19T02:19:20.900Z,13.41
2019-04-19T02:20:17.045Z,13.31
2019-04-19T02:21:22.726Z,13.31
2019-04-19T02:22:22.795Z,13.22
2019-04-19T02:23:17.239Z,13.23
2019-04-19T02:24:15.392Z,13.23
2019-04-19T02:25:21.425Z,13.25
2019-04-19T02:26:19.624Z,13.20
2019-04-19T02:27:16.902Z,13.23
2019-04-19T02:28:18.219Z,13.27
2019-04-19T02:29:20.106Z,13.27
2019-04-19T02:30:26.280Z,13.30
2019-04-19T02:31:35.941Z,13.30
2019-04-19T02:32:31.025Z,13.18
2019-04-19T02:33:41.107Z,13.25
2019-04-19T02:34:39.294Z,13.20
2019-04-19T02:35:34.981Z,13.16
2019-04-19T02:36:51.887Z,13.33
2019-04-19T02:38:46.701Z,13.33
2019-04-19T02:40:52.642Z,13.20
2019-04-19T02:41:40.056Z,13.16
2019-04-19T02:45:01.204Z,13.11
2019-04-19T02:45:35.993Z,13.05
2019-04-19T02:46:50.282Z,13.04
2019-04-19T02:48:48.571Z,13.05
2019-04-19T02:49:46.973Z,13.08
2019-04-19T02:51:02.100Z,12.98
2019-04-19T02:51:38.471Z,13.03
2019-04-19T02:52:42.596Z,13.04
2019-04-19T02:53:41.496Z,13.01
2019-04-19T02:54:44.001Z,12.90
2019-04-19T02:55:47.404Z,12.87
2019-04-19T02:58:43.643Z,12.72
2019-04-19T03:01:49.309Z,12.60
2019-04-19T03:03:15.135Z,12.61
2019-04-19T03:03:31.978Z,12.64
2019-04-19T03:05:35.278Z,12.57
2019-04-19T03:06:28.775Z,12.67
2019-04-19T03:07:13.023Z,12.58
2019-04-19T03:08:12.421Z,12.64
2019-04-19T03:09:11.780Z,12.73
2019-04-19T03:10:17.477Z,12.73
2019-04-19T03:11:31.122Z,12.60
2019-04-19T03:12:32.138Z,12.67
2019-04-19T03:13:25.988Z,12.62
2019-04-19T03:14:24.555Z,12.47
2019-04-19T03:15:31.695Z,12.47
2019-04-19T03:16:35.707Z,12.49
2019-04-19T03:17:31.844Z,12.47
2019-04-19T03:18:30.778Z,12.37
2019-04-19T03:19:23.395Z,12.50
2019-04-19T03:21:31.959Z,12.50
2019-04-19T03:22:43.562Z,12.55
2019-04-19T03:23:22.269Z,12.67
2019-04-19T03:24:23.944Z,12.57
2019-04-19T03:25:23.102Z,12.54
2019-04-19T03:26:28.165Z,12.54
2019-04-19T03:27:17.854Z,12.47
2019-04-19T03:28:23.467Z,12.47
2019-04-19T03:29:16.410Z,12.36
2019-04-19T03:30:29.497Z,12.39
2019-04-19T03:31:41.333Z,12.40
2019-04-19T03:34:41.939Z,12.55
2019-04-19T03:35:26.396Z,12.54
2019-04-19T03:36:24.657Z,12.53
2019-04-19T03:37:44.332Z,12.55
2019-04-19T03:38:30.170Z,12.49
2019-04-19T03:39:29.798Z,12.53
2019-04-19T03:40:32.554Z,12.54
2019-04-19T03:41:40.557Z,12.53
2019-04-19T03:42:39.575Z,12.50
2019-04-19T03:43:31.474Z,12.49
2019-04-19T03:44:25.285Z,12.50
2019-04-19T03:45:24.374Z,12.43
2019-04-19T03:46:22.381Z,12.42
2019-04-19T03:47:28.055Z,12.37
2019-04-19T03:48:28.794Z,12.39
2019-04-19T03:49:40.025Z,12.42
2019-04-19T03:50:26.445Z,12.49
2019-04-19T03:51:26.304Z,12.53
2019-04-19T03:52:25.933Z,12.50
2019-04-19T03:53:36.433Z,12.37
2019-04-19T03:54:23.493Z,12.43
2019-04-19T03:55:24.397Z,12.40
2019-04-19T03:56:26.453Z,12.43
2019-04-19T03:57:20.632Z,12.42
2019-04-19T03:58:14.198Z,12.40
2019-04-19T03:59:07.732Z,12.45
2019-04-19T04:00:08.923Z,12.42
2019-04-19T04:01:08.609Z,12.50
2019-04-19T04:02:07.775Z,12.43
2019-04-19T04:03:18.836Z,12.32
2019-04-19T04:04:14.706Z,12.35
2019-04-19T04:05:11.194Z,12.36
2019-04-19T04:06:08.304Z,12.37
2019-04-19T04:07:12.381Z,12.31
2019-04-19T04:08:10.233Z,12.24
2019-04-19T04:09:09.423Z,12.13
2019-04-19T04:10:08.088Z,12.04
2019-04-19T04:11:12.584Z,12.00
2019-04-19T04:12:23.772Z,12.04
2019-04-19T04:13:20.406Z,12.13
2019-04-19T04:14:15.000Z,12.15
2019-04-19T04:15:17.733Z,12.15
2019-04-19T04:16:18.757Z,12.20
2019-04-19T04:17:06.279Z,12.18
2019-04-19T04:18:06.856Z,12.17
2019-04-19T04:19:06.204Z,12.21
2019-04-19T04:20:07.305Z,12.17
2019-04-19T04:21:05.954Z,12.00
2019-04-19T04:22:09.944Z,12.04
2019-04-19T04:23:10.562Z,11.97
2019-04-19T04:24:16.020Z,11.95
2019-04-19T04:25:13.364Z,11.99
2019-04-19T04:26:11.461Z,12.03
2019-04-19T04:27:12.227Z,12.13
2019-04-19T04:28:17.428Z,12.10
2019-04-19T04:29:14.609Z,11.99
2019-04-19T04:30:15.757Z,12.07
2019-04-19T04:31:15.853Z,12.15
2019-04-19T04:32:12.518Z,12.20
2019-04-19T04:33:13.375Z,12.18
2019-04-19T04:34:22.334Z,12.17
2019-04-19T04:35:20.161Z,12.28
2019-04-19T04:36:25.251Z,12.27
2019-04-19T04:37:22.714Z,12.31
2019-04-19T04:38:16.117Z,12.29
2019-04-19T04:39:05.029Z,12.32
2019-04-19T04:40:04.416Z,12.31
2019-04-19T04:41:07.864Z,12.22
2019-04-19T04:42:19.501Z,12.27
2019-04-19T04:43:22.970Z,12.28
2019-04-19T04:44:20.030Z,12.27
2019-04-19T04:45:41.179Z,12.27
2019-04-19T04:46:27.796Z,12.28
2019-04-19T04:47:25.760Z,12.24
2019-04-19T04:48:24.971Z,12.31
2019-04-19T04:49:30.502Z,12.24
2019-04-19T04:50:25.725Z,12.25
2019-04-19T04:51:19.594Z,12.27
2019-04-19T04:52:14.162Z,12.21
2019-04-19T04:53:04.589Z,12.15
2019-04-19T04:54:04.058Z,12.02
2019-04-19T04:55:03.284Z,12.04
2019-04-19T04:56:06.995Z,12.06
2019-04-19T04:57:08.907Z,12.03
2019-04-19T04:58:06.665Z,11.99
2019-04-19T04:59:09.015Z,12.02
2019-04-19T05:00:04.503Z,12.04
2019-04-19T05:01:09.070Z,12.03
2019-04-19T05:02:10.002Z,12.06
2019-04-19T05:03:18.890Z,12.10
2019-04-19T05:04:20.918Z,12.06
2019-04-19T05:05:19.877Z,12.07
2019-04-19T05:06:23.311Z,12.07
2019-04-19T05:07:25.726Z,12.06
2019-04-19T05:08:20.286Z,12.06
2019-04-19T05:09:22.586Z,12.02
2019-04-19T05:10:23.500Z,11.99
2019-04-19T05:11:20.295Z,11.86
2019-04-19T05:12:34.166Z,12.02
2019-04-19T05:13:33.281Z,12.09
2019-04-19T05:14:26.016Z,12.09
2019-04-19T05:15:22.358Z,12.02
2019-04-19T05:16:28.644Z,12.07
2019-04-19T05:17:37.071Z,12.09
2019-04-19T05:18:45.077Z,12.10
2019-04-19T05:19:18.726Z,12.00
2019-04-19T05:20:18.154Z,12.07
2019-04-19T05:21:21.914Z,12.00
2019-04-19T05:22:18.485Z,11.95
2019-04-19T05:23:20.983Z,12.02
2019-04-19T05:24:21.098Z,12.03
2019-04-19T05:25:25.702Z,12.10
2019-04-19T05:26:30.114Z,12.02
2019-04-19T05:27:24.224Z,12.03
2019-04-19T05:28:16.810Z,12.00
2019-04-19T05:29:10.746Z,12.15
2019-04-19T05:30:01.162Z,12.17
2019-04-19T05:31:04.978Z,12.21
2019-04-19T05:32:11.620Z,12.27
2019-04-19T05:33:09.891Z,12.27
2019-04-19T05:34:20.326Z,12.31
2019-04-19T05:35:14.451Z,12.32
2019-04-19T05:36:18.342Z,12.39
2019-04-19T05:37:14.060Z,12.40
2019-04-19T05:38:16.473Z,12.37
2019-04-19T05:39:21.362Z,12.32
2019-04-19T05:40:18.925Z,12.32
2019-04-19T05:41:11.447Z,12.35
2019-04-19T05:42:12.136Z,12.40
2019-04-19T05:43:23.194Z,12.40
2019-04-19T05:45:35.163Z,12.54
2019-04-19T05:46:21.010Z,12.50
2019-04-19T05:47:18.612Z,12.53
2019-04-19T05:48:08.534Z,12.60
2019-04-19T05:49:16.260Z,12.57
2019-04-19T05:50:23.931Z,12.62
2019-04-19T05:51:31.322Z,12.68
2019-04-19T05:52:17.324Z,12.76
2019-04-19T05:53:10.216Z,12.79
2019-04-19T05:54:03.867Z,12.85
2019-04-19T05:54:58.339Z,12.80
2019-04-19T05:55:58.626Z,12.90
2019-04-19T05:57:10.572Z,12.79
2019-04-19T05:58:11.432Z,12.87
2019-04-19T05:59:08.943Z,12.93
2019-04-19T06:00:10.659Z,12.94
2019-04-19T06:01:10.147Z,12.95
2019-04-19T06:02:10.342Z,12.97
2019-04-19T06:03:10.371Z,12.93
2019-04-19T06:04:17.134Z,13.08
2019-04-19T06:05:33.855Z,13.11
2019-04-19T06:06:19.604Z,13.13
2019-04-19T06:07:17.858Z,13.08
2019-04-19T06:08:08.436Z,13.13
2019-04-19T06:08:58.274Z,13.11
2019-04-19T06:09:58.115Z,13.13
2019-04-19T06:11:01.194Z,13.20
2019-04-19T06:11:58.099Z,13.28
2019-04-19T06:13:02.855Z,13.25
2019-04-19T06:14:22.223Z,13.28
2019-04-19T06:15:19.093Z,13.30
2019-04-19T06:16:15.449Z,13.23
2019-04-19T06:17:08.808Z,13.30
2019-04-19T06:18:13.281Z,13.35
2019-04-19T06:19:20.493Z,13.37
2019-04-19T06:20:17.823Z,13.42
2019-04-19T06:21:19.553Z,13.37
2019-04-19T06:22:08.363Z,13.39
2019-04-19T06:23:13.507Z,13.39
2019-04-19T06:24:19.125Z,13.42
2019-04-19T06:25:12.406Z,13.47
2019-04-19T06:26:50.260Z,13.46
2019-04-19T06:27:17.736Z,13.50
2019-04-19T06:28:26.881Z,13.50
2019-04-19T06:29:15.053Z,13.54
2019-04-19T06:30:25.027Z,13.49
2019-04-19T06:31:22.053Z,13.49
2019-04-19T06:32:20.710Z,13.52
2019-04-19T06:33:18.335Z,13.50
2019-04-19T06:34:18.282Z,13.50
2019-04-19T06:35:11.643Z,13.65
2019-04-19T06:35:59.468Z,13.68
2019-04-19T06:37:04.436Z,13.70
2019-04-19T06:37:54.901Z,13.68
2019-04-19T06:38:55.152Z,13.68
2019-04-19T06:40:04.917Z,13.75
2019-04-19T06:41:01.952Z,13.68
2019-04-19T06:42:00.905Z,13.67
2019-04-19T06:43:04.274Z,13.79
2019-04-19T06:44:05.109Z,13.79
2019-04-19T06:45:13.205Z,13.83
2019-04-19T06:46:09.617Z,13.81
2019-04-19T06:47:06.176Z,13.78
2019-04-19T06:48:01.912Z,13.86
2019-04-19T06:49:01.403Z,13.87
2019-04-19T06:49:55.635Z,13.81
2019-04-19T06:50:57.224Z,13.81
2019-04-19T06:52:01.316Z,13.89
2019-04-19T06:52:53.718Z,13.93
2019-04-19T06:53:58.903Z,13.96
2019-04-19T06:54:53.713Z,13.96
2019-04-19T06:56:06.828Z,14.04
2019-04-19T06:57:08.599Z,14.00
2019-04-19T06:58:03.627Z,13.99
2019-04-19T06:59:04.707Z,14.00
2019-04-19T07:00:06.280Z,14.08
2019-04-19T07:01:04.904Z,14.07
2019-04-19T07:01:56.370Z,14.11
2019-04-19T07:02:54.102Z,14.11
2019-04-19T07:03:53.768Z,14.15
2019-04-19T07:05:08.923Z,14.18
2019-04-19T07:06:10.347Z,14.23
2019-04-19T07:07:09.665Z,14.17
2019-04-19T07:08:40.112Z,14.22
2019-04-19T07:09:31.081Z,14.30
2019-04-19T07:10:22.675Z,14.30
2019-04-19T07:11:27.272Z,14.32
2019-04-19T07:12:10.602Z,14.30
2019-04-19T07:13:09.770Z,14.32
2019-04-19T07:14:01.699Z,14.40
2019-04-19T07:15:06.680Z,14.33
2019-04-19T07:17:13.638Z,14.35
2019-04-19T07:18:06.387Z,14.48
2019-04-19T07:19:10.885Z,14.48
2019-04-19T07:20:07.722Z,14.44
2019-04-19T07:21:12.476Z,14.55
2019-04-19T07:22:06.252Z,14.54
2019-04-19T07:23:03.192Z,14.59
2019-04-19T07:24:20.421Z,14.54
2019-04-19T07:25:18.455Z,14.65
2019-04-19T07:26:18.223Z,14.62
2019-04-19T07:27:05.824Z,14.68
2019-04-19T07:28:00.690Z,14.68
2019-04-19T07:28:51.517Z,14.63
2019-04-19T07:29:52.347Z,14.72
2019-04-19T07:30:57.509Z,14.73
2019-04-19T07:31:51.259Z,14.78
2019-04-19T07:32:59.585Z,14.73
2019-04-19T07:34:03.546Z,14.86
2019-04-19T07:35:00.654Z,14.77
2019-04-19T07:36:11.598Z,14.89
2019-04-19T07:37:08.720Z,14.86
2019-04-19T07:38:17.250Z,14.89
2019-04-19T07:39:09.405Z,14.91
2019-04-19T07:40:16.216Z,14.91
2019-04-19T07:41:14.176Z,14.94
2019-04-19T07:42:10.981Z,14.99
2019-04-19T07:43:06.079Z,14.96
2019-04-19T07:44:02.428Z,15.14
2019-04-19T07:44:54.443Z,15.10
2019-04-19T07:46:08.301Z,15.14
2019-04-19T07:47:06.488Z,15.18
2019-04-19T07:47:58.556Z,15.17
2019-04-19T07:48:49.485Z,15.10
2019-04-19T07:50:00.553Z,15.21
2019-04-19T07:50:55.788Z,15.17
2019-04-19T07:51:57.233Z,15.19
2019-04-19T07:52:56.100Z,15.27
2019-04-19T07:53:52.456Z,15.21
2019-04-19T07:54:55.286Z,15.24
2019-04-19T07:56:01.699Z,15.36
2019-04-19T07:57:06.289Z,15.42
2019-04-19T07:59:14.905Z,15.52
2019-04-19T08:03:20.285Z,15.54
2019-04-19T08:04:27.426Z,15.51
2019-04-19T08:06:21.219Z,15.65
2019-04-19T08:07:17.220Z,15.58
2019-04-19T08:09:20.281Z,15.61
2019-04-19T08:11:16.831Z,15.75
2019-04-19T08:13:19.597Z,15.72
2019-04-19T08:14:40.093Z,15.77
2019-04-19T08:17:35.229Z,15.98
2019-04-19T08:27:57.929Z,16.46
2019-04-19T08:28:56.680Z,16.41
2019-04-19T08:29:54.177Z,16.54
2019-04-19T08:30:51.949Z,16.49
2019-04-19T08:31:46.751Z,16.50
2019-04-19T08:32:46.902Z,16.58
2019-04-19T08:33:46.517Z,16.57
2019-04-19T08:34:47.749Z,16.60
2019-04-19T08:35:50.446Z,16.57
2019-04-19T08:36:53.211Z,16.65
2019-04-19T08:37:48.465Z,16.60
2019-04-19T08:39:03.196Z,16.64
2019-04-19T08:39:58.575Z,16.64
2019-04-19T08:41:02.119Z,16.61
2019-04-19T08:42:06.778Z,16.61
2019-04-19T08:43:03.382Z,16.66
2019-04-19T08:43:59.337Z,16.64
2019-04-19T08:44:54.449Z,16.57
2019-04-19T08:45:44.859Z,16.61
2019-04-19T08:46:44.995Z,16.61
2019-04-19T08:47:56.018Z,16.68
2019-04-19T08:48:51.213Z,16.69
2019-04-19T08:49:47.751Z,16.75
2019-04-19T08:50:48.832Z,16.84
2019-04-19T08:51:45.259Z,16.90
2019-04-19T08:52:53.077Z,16.93
2019-04-19T08:53:57.022Z,16.94
2019-04-19T08:55:06.224Z,17.01
2019-04-19T08:56:01.748Z,17.01
2019-04-19T08:56:53.459Z,16.99
2019-04-19T08:57:51.193Z,17.16
2019-04-19T08:59:00.225Z,17.12
2019-04-19T09:00:08.911Z,17.26
2019-04-19T09:01:09.135Z,17.23
2019-04-19T09:02:07.230Z,17.27
2019-04-19T09:02:57.786Z,17.27
2019-04-19T09:04:02.691Z,17.30
2019-04-19T09:05:01.849Z,17.27
2019-04-19T09:06:34.895Z,17.27
2019-04-19T09:08:02.032Z,17.39
2019-04-19T09:08:58.108Z,17.38
2019-04-19T09:10:19.472Z,17.41
2019-04-19T09:11:04.033Z,17.31
2019-04-19T09:12:04.711Z,17.36
2019-04-19T09:13:16.904Z,17.39
2019-04-19T09:14:04.853Z,17.38
2019-04-19T09:15:03.879Z,17.52
2019-04-19T09:16:04.914Z,17.59
2019-04-19T09:17:07.239Z,17.68
2019-04-19T09:19:12.268Z,17.57
2019-04-19T09:21:00.016Z,17.54
2019-04-19T09:21:58.232Z,17.56
2019-04-19T09:22:53.228Z,17.59
2019-04-19T09:23:48.737Z,17.54
2019-04-19T09:24:52.808Z,17.63
2019-04-19T09:25:55.054Z,17.60
2019-04-19T09:26:59.010Z,17.67
2019-04-19T09:27:59.977Z,17.76
2019-04-19T09:29:00.308Z,17.60
2019-04-19T09:29:58.682Z,17.78
2019-04-19T09:30:58.431Z,17.82
2019-04-19T09:31:51.738Z,17.67
2019-04-19T09:32:42.270Z,17.76
2019-04-19T09:33:44.088Z,17.65
2019-04-19T09:34:50.912Z,17.72
2019-04-19T09:35:52.299Z,17.71
2019-04-19T09:36:49.147Z,17.85
2019-04-19T09:37:53.772Z,17.80
2019-04-19T09:38:56.990Z,17.85
2019-04-19T09:39:50.133Z,18.00
2019-04-19T09:40:48.695Z,17.94
2019-04-19T09:41:46.600Z,18.00
2019-04-19T09:42:51.114Z,17.95
2019-04-19T09:43:52.220Z,18.05
2019-04-19T09:44:47.986Z,18.04
2019-04-19T09:45:40.438Z,18.07
2019-04-19T09:46:40.411Z,18.04
2019-04-19T09:47:40.083Z,18.11
2019-04-19T09:48:56.598Z,18.03
2019-04-19T09:49:53.023Z,18.19
2019-04-19T09:50:55.084Z,18.13
2019-04-19T09:51:55.443Z,18.25
2019-04-19T09:52:59.963Z,18.23
2019-04-19T09:54:05.589Z,18.28
2019-04-19T09:55:03.622Z,18.34
2019-04-19T09:56:01.731Z,18.29
2019-04-19T09:56:53.672Z,18.41
2019-04-19T09:58:00.189Z,18.33
2019-04-19T09:58:53.112Z,18.38
2019-04-19T10:01:31.013Z,18.34
2019-04-19T10:02:29.881Z,18.37
2019-04-19T10:04:14.782Z,18.50
2019-04-19T10:05:14.798Z,18.47
2019-04-19T10:07:18.778Z,18.59
2019-04-19T10:08:18.076Z,18.63
2019-04-19T10:10:22.858Z,18.60
2019-04-19T10:11:23.113Z,18.70
2019-04-19T10:13:25.854Z,18.78
2019-04-19T10:14:25.708Z,18.81
2019-04-19T10:15:25.484Z,18.68
2019-04-19T10:16:26.367Z,18.70
2019-04-19T10:17:26.747Z,18.65
2019-04-19T10:18:25.265Z,18.71
2019-04-19T10:19:26.511Z,18.81
2019-04-19T10:20:25.099Z,18.83
2019-04-19T10:21:31.371Z,18.86
2019-04-19T10:22:25.296Z,18.86
2019-04-19T10:23:25.218Z,18.88
2019-04-19T10:24:26.064Z,18.78
2019-04-19T10:25:25.425Z,18.86
2019-04-19T10:26:24.649Z,18.88
2019-04-19T10:27:24.883Z,18.92
2019-04-19T10:28:26.580Z,18.99
2019-04-19T10:29:30.550Z,18.89
2019-04-19T10:30:24.505Z,18.86
2019-04-19T10:31:25.365Z,18.89
2019-04-19T10:32:24.472Z,19.07
2019-04-19T10:33:33.141Z,19.09
2019-04-19T10:34:24.926Z,19.22
2019-04-19T10:35:25.268Z,19.30
2019-04-19T10:36:24.551Z,19.29
2019-04-19T10:37:24.045Z,19.30
2019-04-19T10:38:23.756Z,19.34
2019-04-19T10:39:23.807Z,19.47
2019-04-19T10:40:23.804Z,19.54
2019-04-19T10:41:23.521Z,19.59
2019-04-19T10:42:23.441Z,19.59
2019-04-19T10:43:23.372Z,19.67
2019-04-19T10:44:25.049Z,19.73
2019-04-19T10:45:23.868Z,19.81
2019-04-19T10:46:23.141Z,19.86
2019-04-19T10:47:23.065Z,19.86
2019-04-19T10:48:23.139Z,19.94
2019-04-19T10:49:34.307Z,19.82
2019-04-19T10:50:32.808Z,19.88
2019-04-19T10:51:23.678Z,19.89
2019-04-19T10:52:23.795Z,19.86
2019-04-19T10:53:22.622Z,19.95
2019-04-19T10:54:22.554Z,19.82
2019-04-19T10:55:22.469Z,19.86
2019-04-19T10:56:22.608Z,19.94
2019-04-19T10:57:23.254Z,19.89
2019-04-19T10:58:23.260Z,19.84
2019-04-19T10:59:22.543Z,19.86
2019-04-19T11:00:22.093Z,20.00
2019-04-19T11:01:23.055Z,20.04
2019-04-19T11:02:24.087Z,20.11
2019-04-19T11:03:23.130Z,20.11
2019-04-19T11:04:22.784Z,20.10
2019-04-19T11:05:22.845Z,20.22
2019-04-19T11:06:21.773Z,20.24
2019-04-19T11:07:21.574Z,20.11
2019-04-19T11:08:22.457Z,20.18
2019-04-19T11:09:22.673Z,20.25
2019-04-19T11:10:22.017Z,20.24
2019-04-19T11:11:21.491Z,20.36
2019-04-19T11:12:21.960Z,20.37
2019-04-19T11:13:25.676Z,20.44
2019-04-19T11:14:21.864Z,20.40
2019-04-19T11:15:22.290Z,20.50
2019-04-19T11:16:21.511Z,20.56
2019-04-19T11:17:20.833Z,20.55
2019-04-19T11:18:21.546Z,20.58
2019-04-19T11:19:32.907Z,20.63
2019-04-19T11:20:31.923Z,20.58
2019-04-19T11:21:20.539Z,20.66
2019-04-19T11:22:21.557Z,20.74
2019-04-19T11:23:21.787Z,20.78
2019-04-19T11:24:20.317Z,20.75
2019-04-19T11:25:20.251Z,20.92
2019-04-19T11:26:21.044Z,20.85
2019-04-19T11:27:21.335Z,20.93
2019-04-19T11:28:20.953Z,20.95
2019-04-19T11:29:19.958Z,20.93
2019-04-19T11:30:20.928Z,20.97
2019-04-19T11:31:19.808Z,20.92
2019-04-19T11:32:19.930Z,20.97
2019-04-19T11:33:19.664Z,20.95
2019-04-19T11:34:19.598Z,20.96
2019-04-19T11:35:19.531Z,21.11
2019-04-19T11:36:19.514Z,21.24
2019-04-19T11:37:20.103Z,21.37
2019-04-19T11:38:19.323Z,21.50
2019-04-19T11:39:19.274Z,21.61
2019-04-19T11:40:19.563Z,21.72
2019-04-19T11:41:19.126Z,21.95
2019-04-19T11:42:19.308Z,22.14
2019-04-19T11:43:19.775Z,22.25
2019-04-19T11:44:22.889Z,22.44
2019-04-19T11:45:19.773Z,22.53
2019-04-19T11:46:19.954Z,22.66
2019-04-19T11:47:19.370Z,22.76
2019-04-19T11:48:18.686Z,23.02
2019-04-19T11:49:26.698Z,23.20
2019-04-19T11:50:19.771Z,23.41
2019-04-19T11:51:19.331Z,23.56
2019-04-19T11:52:19.733Z,23.77
2019-04-19T11:53:18.608Z,23.93
2019-04-19T11:54:18.693Z,24.01
2019-04-19T11:55:18.349Z,24.32
2019-04-19T11:56:18.611Z,24.33
2019-04-19T11:57:18.673Z,24.60
2019-04-19T11:58:18.055Z,24.76
2019-04-19T11:59:18.505Z,24.88
2019-04-19T12:00:17.943Z,25.13
2019-04-19T12:01:18.241Z,25.23
2019-04-19T12:02:17.966Z,25.31
2019-04-19T12:03:18.104Z,25.59
2019-04-19T12:04:18.446Z,25.81
2019-04-19T12:05:23.229Z,25.78
2019-04-19T12:06:18.353Z,25.85
2019-04-19T12:07:18.592Z,26.02
2019-04-19T12:08:18.217Z,26.18
2019-04-19T12:09:18.514Z,26.33
2019-04-19T12:10:18.645Z,26.41
2019-04-19T12:11:17.995Z,26.53
2019-04-19T12:12:17.257Z,26.60
2019-04-19T12:13:17.339Z,26.77
2019-04-19T12:14:17.409Z,26.96
2019-04-19T12:15:17.870Z,26.99
2019-04-19T12:18:00.022Z,27.08
2019-04-19T12:19:00.275Z,27.36
2019-04-19T12:21:03.511Z,27.44
2019-04-19T12:22:03.451Z,27.58
2019-04-19T12:24:08.624Z,27.73
2019-04-19T12:25:07.905Z,27.87
2019-04-19T12:27:11.690Z,27.82
2019-04-19T12:28:12.039Z,27.90
2019-04-19T12:30:15.712Z,28.27
2019-04-19T12:31:15.659Z,28.45
2019-04-19T12:33:19.537Z,28.59
2019-04-19T12:34:18.665Z,28.67
2019-04-19T12:36:23.389Z,28.60
2019-04-19T12:37:22.894Z,28.69
2019-04-19T12:39:27.278Z,28.89
2019-04-19T12:40:27.597Z,28.94
2019-04-19T12:41:26.245Z,29.05
2019-04-19T12:42:26.193Z,29.14
2019-04-19T12:43:26.140Z,29.23
2019-04-19T12:44:27.050Z,29.36
2019-04-19T12:45:26.269Z,29.45
2019-04-19T12:46:26.236Z,29.53
2019-04-19T12:47:26.895Z,29.59
2019-04-19T12:48:25.875Z,29.68
2019-04-19T12:49:26.767Z,29.61
2019-04-19T12:50:25.769Z,29.51
2019-04-19T12:51:26.005Z,29.57
2019-04-19T12:52:26.175Z,29.49
2019-04-19T12:53:25.611Z,29.47
2019-04-19T12:54:25.969Z,29.57
2019-04-19T12:55:26.110Z,29.72
2019-04-19T12:56:26.318Z,29.82
2019-04-19T12:57:25.840Z,30.03
2019-04-19T12:58:26.022Z,29.87
2019-04-19T12:59:26.400Z,30.06
2019-04-19T13:00:25.802Z,30.31
2019-04-19T13:01:26.045Z,30.28
2019-04-19T13:02:26.213Z,30.35
2019-04-19T13:03:25.638Z,30.51
2019-04-19T13:04:26.388Z,30.51
2019-04-19T13:05:27.012Z,30.55
2019-04-19T13:06:25.262Z,30.63
2019-04-19T13:07:24.895Z,30.69
2019-04-19T13:08:25.220Z,30.66
2019-04-19T13:09:24.778Z,30.73
2019-04-19T13:10:24.956Z,30.84
2019-04-19T13:11:25.213Z,31.03
2019-04-19T13:12:24.619Z,31.02
2019-04-19T13:13:25.693Z,31.06
2019-04-19T13:14:25.795Z,31.29
2019-04-19T13:15:25.056Z,31.43
2019-04-19T13:16:24.412Z,31.43
2019-04-19T13:17:24.363Z,31.58
2019-04-19T13:18:24.483Z,31.61
2019-04-19T13:19:25.010Z,31.52
2019-04-19T13:20:28.307Z,31.49
2019-04-19T13:21:24.249Z,31.29
2019-04-19T13:22:24.101Z,31.28
2019-04-19T13:23:24.335Z,31.29
2019-04-19T13:24:24.542Z,31.31
2019-04-19T13:25:23.948Z,31.44
2019-04-19T13:26:25.145Z,31.62
2019-04-19T13:27:35.524Z,31.58
2019-04-19T13:28:23.794Z,31.55
2019-04-19T13:29:23.741Z,31.59
2019-04-19T13:30:32.129Z,31.61
2019-04-19T13:31:24.846Z,31.71
2019-04-19T13:32:23.846Z,31.74
2019-04-19T13:33:24.131Z,31.92
2019-04-19T13:34:23.492Z,32.00
2019-04-19T13:35:23.534Z,32.07
2019-04-19T13:36:23.379Z,32.23
2019-04-19T13:37:23.324Z,32.41
2019-04-19T13:38:23.450Z,32.52
2019-04-19T13:39:23.221Z,32.65
2019-04-19T13:40:24.212Z,32.68
2019-04-19T13:41:23.112Z,32.82
2019-04-19T13:42:24.560Z,32.77
2019-04-19T13:43:23.014Z,32.93
2019-04-19T13:44:23.045Z,32.65